Time,TemperatureF,DewpointF,PressureIn,WindDirection,WindDirectionDegrees,WindSpeedMPH,WindSpeedGustMPH,Humidity,HourlyPrecipIn,Conditions,Clouds,dailyrainin,SoftwareType,DateUTC
2013-02-11 00:02:00,18.0,2.9,30.33,WSW,254,0.0,0.0,51,0.00,,,0.00,Wunderground v.1.15,2013-02-11 05:02:00,
2013-02-11 00:12:00,18.2,3.1,30.33,WSW,254,0.0,0.0,51,0.00,,,0.00,Wunderground v.1.15,2013-02-11 05:12:00,
2013-02-11 00:17:00,18.1,2.6,30.33,WSW,253,0.0,0.0,50,0.00,,,0.00,Wunderground v.1.15,2013-02-11 05:17:00,
2013-02-11 00:22:00,18.2,2.6,30.33,WSW,254,0.0,0.0,50,0.00,,,0.00,Wunderground v.1.15,2013-02-11 05:22:00,
2013-02-11 00:27:00,18.0,3.3,30.33,WSW,254,0.0,0.0,52,0.00,,,0.00,Wunderground v.1.15,2013-02-11 05:27:00,
2013-02-11 00:32:00,17.9,3.2,30.33,WSW,253,0.0,0.0,52,0.00,,,0.00,Wunderground v.1.15,2013-02-11 05:32:00,
2013-02-11 00:42:00,18.4,2.8,30.33,WSW,254,0.0,0.0,50,0.00,,,0.00,Wunderground v.1.15,2013-02-11 05:42:00,
2013-02-11 00:47:00,18.8,3.2,30.33,WSW,254,0.0,0.0,50,0.00,,,0.00,Wunderground v.1.15,2013-02-11 05:47:00,
2013-02-11 00:52:00,18.7,2.2,30.33,WSW,254,0.0,0.0,48,0.00,,,0.00,Wunderground v.1.15,2013-02-11 05:52:00,
2013-02-11 01:02:00,18.5,3.4,30.31,WSW,253,0.0,0.0,51,0.00,,,0.00,Wunderground v.1.15,2013-02-11 06:02:00,
2013-02-11 01:07:00,18.1,3.0,30.30,WSW,254,0.0,0.0,51,0.00,,,0.00,Wunderground v.1.15,2013-02-11 06:07:00,
2013-02-11 01:12:00,17.6,3.3,30.30,WSW,254,0.0,0.0,53,0.00,,,0.00,Wunderground v.1.15,2013-02-11 06:12:00,
2013-02-11 01:22:00,16.8,3.8,30.29,WSW,254,0.0,0.0,56,0.00,,,0.00,Wunderground v.1.15,2013-02-11 06:22:00,
2013-02-11 01:32:00,17.7,6.2,30.30,WSW,254,0.0,0.0,60,0.00,,,0.00,Wunderground v.1.15,2013-02-11 06:32:00,
2013-02-11 01:37:00,17.5,5.2,30.30,WSW,253,0.0,0.0,58,0.00,,,0.00,Wunderground v.1.15,2013-02-11 06:37:00,
2013-02-11 01:47:00,17.7,4.6,30.29,WSW,254,0.0,0.0,56,0.00,,,0.00,Wunderground v.1.15,2013-02-11 06:47:00,
2013-02-11 01:52:00,17.5,4.1,30.29,WSW,254,0.0,0.0,55,0.00,,,0.00,Wunderground v.1.15,2013-02-11 06:52:00,
2013-02-11 01:57:00,17.4,3.2,30.29,WSW,253,0.0,0.0,53,0.00,,,0.00,Wunderground v.1.15,2013-02-11 06:57:00,
2013-02-11 02:02:00,17.5,3.3,30.29,WSW,254,0.0,0.0,53,0.00,,,0.00,Wunderground v.1.15,2013-02-11 07:02:00,
2013-02-11 02:12:00,17.4,3.6,30.28,WSW,253,0.0,0.0,54,0.00,,,0.00,Wunderground v.1.15,2013-02-11 07:12:00,
2013-02-11 02:17:00,17.5,2.8,30.28,WSW,254,0.0,0.0,52,0.00,,,0.00,Wunderground v.1.15,2013-02-11 07:17:00,
2013-02-11 02:27:00,18.4,2.4,30.28,WSW,254,0.0,0.0,49,0.00,,,0.00,Wunderground v.1.15,2013-02-11 07:27:00,
2013-02-11 02:32:00,18.8,2.3,30.27,WSW,253,0.0,0.0,48,0.00,,,0.00,Wunderground v.1.15,2013-02-11 07:32:00,
2013-02-11 02:42:00,18.9,2.9,30.27,WSW,253,0.0,0.0,49,0.00,,,0.00,Wunderground v.1.15,2013-02-11 07:42:00,
2013-02-11 02:47:00,18.0,2.5,30.27,WSW,254,0.0,0.0,50,0.00,,,0.00,Wunderground v.1.15,2013-02-11 07:47:00,
2013-02-11 02:52:00,17.5,3.7,30.27,WSW,253,0.0,0.0,54,0.00,,,0.00,Wunderground v.1.15,2013-02-11 07:52:00,
2013-02-11 03:02:00,17.6,2.9,30.26,WSW,254,0.0,0.0,52,0.00,,,0.00,Wunderground v.1.15,2013-02-11 08:02:00,
2013-02-11 03:07:00,17.7,4.2,30.26,WSW,254,0.0,0.0,55,0.00,,,0.00,Wunderground v.1.15,2013-02-11 08:07:00,
2013-02-11 03:12:00,17.3,4.3,30.26,WSW,253,0.0,0.0,56,0.00,,,0.00,Wunderground v.1.15,2013-02-11 08:12:00,
2013-02-11 03:22:00,16.2,4.4,30.26,WSW,253,0.0,0.0,59,0.00,,,0.00,Wunderground v.1.15,2013-02-11 08:22:00,
2013-02-11 03:27:00,16.1,4.6,30.26,WSW,253,0.0,0.0,60,0.00,,,0.00,Wunderground v.1.15,2013-02-11 08:27:00,
2013-02-11 03:32:00,16.5,4.3,30.25,WSW,254,0.0,0.0,58,0.00,,,0.00,Wunderground v.1.15,2013-02-11 08:32:00,
2013-02-11 03:42:00,15.8,3.6,30.25,WSW,254,0.0,0.0,58,0.00,,,0.00,Wunderground v.1.15,2013-02-11 08:42:00,
2013-02-11 03:47:00,15.2,5.2,30.25,WSW,254,0.0,0.0,64,0.00,,,0.00,Wunderground v.1.15,2013-02-11 08:47:00,
2013-02-11 03:52:00,15.2,4.9,30.25,WSW,254,0.0,0.0,63,0.00,,,0.00,Wunderground v.1.15,2013-02-11 08:52:00,
2013-02-11 04:02:00,15.5,5.5,30.24,WSW,253,0.0,0.0,64,0.00,,,0.00,Wunderground v.1.15,2013-02-11 09:02:00,
2013-02-11 04:12:00,16.1,6.1,30.24,WSW,253,0.0,0.0,64,0.00,,,0.00,Wunderground v.1.15,2013-02-11 09:12:00,
2013-02-11 04:17:00,16.4,5.3,30.24,WSW,254,0.0,0.0,61,0.00,,,0.00,Wunderground v.1.15,2013-02-11 09:17:00,
2013-02-11 04:27:00,16.9,5.8,30.23,WSW,254,0.0,0.0,61,0.00,,,0.00,Wunderground v.1.15,2013-02-11 09:27:00,
2013-02-11 04:32:00,16.7,5.6,30.23,WSW,253,0.0,0.0,61,0.00,,,0.00,Wunderground v.1.15,2013-02-11 09:32:00,
2013-02-11 04:42:00,16.4,4.9,30.22,WSW,253,0.0,0.0,60,0.00,,,0.00,Wunderground v.1.15,2013-02-11 09:42:00,
2013-02-11 04:52:00,17.3,4.3,30.22,WSW,254,0.0,0.0,56,0.00,,,0.00,Wunderground v.1.15,2013-02-11 09:52:00,
2013-02-11 04:57:00,17.9,4.8,30.22,WSW,253,0.0,0.0,56,0.00,,,0.00,Wunderground v.1.15,2013-02-11 09:57:00,
2013-02-11 05:07:00,19.5,4.3,30.21,WSW,254,0.0,0.0,51,0.00,,,0.00,Wunderground v.1.15,2013-02-11 10:07:00,
2013-02-11 05:12:00,19.8,4.6,30.21,WSW,254,0.0,0.0,51,0.00,,,0.00,Wunderground v.1.15,2013-02-11 10:12:00,
2013-02-11 05:17:00,19.7,4.9,30.22,WSW,254,0.0,0.0,52,0.00,,,0.00,Wunderground v.1.15,2013-02-11 10:17:00,
2013-02-11 05:22:00,19.3,4.5,30.21,WSW,253,0.0,0.0,52,0.00,,,0.00,Wunderground v.1.15,2013-02-11 10:22:00,
2013-02-11 05:32:00,19.3,4.5,30.21,WSW,253,0.0,0.0,52,0.00,,,0.00,Wunderground v.1.15,2013-02-11 10:32:00,
2013-02-11 05:37:00,18.9,6.2,30.21,WSW,254,0.0,0.0,57,0.00,,,0.00,Wunderground v.1.15,2013-02-11 10:37:00,
2013-02-11 05:42:00,17.3,5.8,30.21,WSW,253,0.0,0.0,60,0.00,,,0.00,Wunderground v.1.15,2013-02-11 10:42:00,
2013-02-11 05:52:00,15.3,5.6,30.22,WSW,253,0.0,0.0,65,0.00,,,0.00,Wunderground v.1.15,2013-02-11 10:52:00,
2013-02-11 06:02:00,14.8,5.8,30.21,WSW,253,0.0,0.0,67,0.00,,,0.00,Wunderground v.1.15,2013-02-11 11:02:00,
2013-02-11 06:07:00,14.8,6.5,30.21,WSW,254,0.0,0.0,69,0.00,,,0.00,Wunderground v.1.15,2013-02-11 11:07:00,
2013-02-11 06:12:00,14.9,6.6,30.21,WSW,253,0.0,0.0,69,0.00,,,0.00,Wunderground v.1.15,2013-02-11 11:12:00,
2013-02-11 06:22:00,15.0,7.0,30.20,WSW,254,0.0,0.0,70,0.00,,,0.00,Wunderground v.1.15,2013-02-11 11:22:00,
2013-02-11 06:27:00,14.9,7.2,30.20,WSW,253,0.0,0.0,71,0.00,,,0.00,Wunderground v.1.15,2013-02-11 11:27:00,
2013-02-11 06:32:00,14.5,6.8,30.20,WSW,254,0.0,0.0,71,0.00,,,0.00,Wunderground v.1.15,2013-02-11 11:32:00,
2013-02-11 06:42:00,14.5,7.4,30.19,WSW,253,0.0,0.0,73,0.00,,,0.00,Wunderground v.1.15,2013-02-11 11:42:00,
2013-02-11 06:52:00,16.2,6.5,30.18,WSW,253,0.0,0.0,65,0.00,,,0.00,Wunderground v.1.15,2013-02-11 11:52:00,
2013-02-11 06:57:00,17.2,6.4,30.18,WSW,254,0.0,0.0,62,0.00,,,0.00,Wunderground v.1.15,2013-02-11 11:57:00,
2013-02-11 07:02:00,17.9,6.0,30.17,WSW,254,0.0,0.0,59,0.00,,,0.00,Wunderground v.1.15,2013-02-11 12:02:00,
2013-02-11 07:12:00,18.7,5.6,30.18,WSW,254,0.0,0.0,56,0.00,,,0.00,Wunderground v.1.15,2013-02-11 12:12:00,
2013-02-11 07:53:00,19.7,6.1,30.17,WSW,254,0.0,0.0,55,0.00,,,0.00,Wunderground v.1.15,2013-02-11 12:53:00,
2013-02-11 08:02:00,19.7,6.1,30.17,WSW,254,0.0,0.0,55,0.00,,,0.00,Wunderground v.1.15,2013-02-11 13:02:00,
2013-02-11 08:07:00,19.7,6.5,30.16,WSW,254,0.0,0.0,56,0.00,,,0.00,Wunderground v.1.15,2013-02-11 13:07:00,
2013-02-11 08:12:00,19.7,6.5,30.16,WSW,254,0.0,0.0,56,0.00,,,0.00,Wunderground v.1.15,2013-02-11 13:12:00,
2013-02-11 08:22:00,19.7,6.1,30.15,WSW,254,0.0,0.0,55,0.00,,,0.00,Wunderground v.1.15,2013-02-11 13:22:00,
2013-02-11 08:27:00,19.7,6.5,30.15,WSW,254,0.0,0.0,56,0.00,,,0.00,Wunderground v.1.15,2013-02-11 13:27:00,
2013-02-11 08:37:00,19.8,6.2,30.15,WSW,257,0.0,0.0,55,0.00,,,0.00,Wunderground v.1.15,2013-02-11 13:37:00,
2013-02-11 08:42:00,19.9,6.7,30.14,WSW,258,0.0,0.0,56,0.00,,,0.00,Wunderground v.1.15,2013-02-11 13:42:00,
2013-02-11 08:47:00,19.9,7.9,30.14,SSE,156,0.0,2.0,59,0.00,,,0.00,Wunderground v.1.15,2013-02-11 13:47:00,
2013-02-11 08:52:00,19.7,8.4,30.14,East,92,1.0,2.0,61,0.00,,,0.00,Wunderground v.1.15,2013-02-11 13:52:00,
2013-02-11 09:02:00,18.8,9.6,30.12,ENE,75,1.0,3.0,67,0.00,,,0.00,Wunderground v.1.15,2013-02-11 14:02:00,
2013-02-11 09:12:00,18.1,11.2,30.12,East,84,1.0,2.0,74,0.00,,,0.00,Wunderground v.1.15,2013-02-11 14:12:00,
2013-02-11 09:17:00,18.0,12.0,30.11,East,86,0.0,0.0,77,0.00,,,0.00,Wunderground v.1.15,2013-02-11 14:17:00,
2013-02-11 09:22:00,17.9,12.5,30.11,East,86,0.0,0.0,79,0.00,,,0.00,Wunderground v.1.15,2013-02-11 14:22:00,
2013-02-11 09:32:00,17.8,13.5,30.11,East,89,0.0,1.0,83,0.00,,,0.00,Wunderground v.1.15,2013-02-11 14:32:00,
2013-02-11 09:37:00,17.9,14.2,30.10,East,88,0.0,0.0,85,0.00,,,0.00,Wunderground v.1.15,2013-02-11 14:37:00,
2013-02-11 09:42:00,18.0,14.5,30.10,East,89,0.0,0.0,86,0.00,,,0.00,Wunderground v.1.15,2013-02-11 14:42:00,
2013-02-11 09:52:00,18.3,15.3,30.09,NNE,22,0.0,0.0,88,0.00,,,0.00,Wunderground v.1.15,2013-02-11 14:52:00,
2013-02-11 10:02:00,19.0,16.3,30.08,NNE,27,0.0,0.0,89,0.00,,,0.00,Wunderground v.1.15,2013-02-11 15:02:00,
2013-02-11 10:12:00,19.4,16.9,30.07,NNE,33,0.0,0.0,90,0.00,,,0.00,Wunderground v.1.15,2013-02-11 15:12:00,
2013-02-11 10:22:00,19.6,17.4,30.06,NE,52,0.0,0.0,91,0.00,,,0.00,Wunderground v.1.15,2013-02-11 15:22:00,
2013-02-11 10:27:00,19.7,17.5,30.06,ENE,60,0.0,0.0,91,0.00,,,0.00,Wunderground v.1.15,2013-02-11 15:27:00,
2013-02-11 10:32:00,19.8,17.6,30.06,East,99,0.0,0.0,91,0.00,,,0.00,Wunderground v.1.15,2013-02-11 15:32:00,
2013-02-11 10:42:00,20.1,18.1,30.06,East,99,0.0,0.0,92,0.00,,,0.00,Wunderground v.1.15,2013-02-11 15:42:00,
2013-02-11 10:47:00,20.2,18.2,30.06,East,99,0.0,0.0,92,0.00,,,0.00,Wunderground v.1.15,2013-02-11 15:47:00,
2013-02-11 10:52:00,20.3,18.3,30.05,East,99,0.0,0.0,92,0.00,,,0.00,Wunderground v.1.15,2013-02-11 15:52:00,
2013-02-11 11:02:00,20.3,18.3,30.04,East,99,0.0,0.0,92,0.00,,,0.00,Wunderground v.1.15,2013-02-11 16:02:00,
2013-02-11 11:12:00,20.5,18.5,30.02,East,99,0.0,0.0,92,0.00,,,0.00,Wunderground v.1.15,2013-02-11 16:12:00,
2013-02-11 11:17:00,20.5,18.5,30.01,East,96,0.0,2.0,92,0.00,,,0.00,Wunderground v.1.15,2013-02-11 16:17:00,
2013-02-11 11:27:00,20.5,18.5,30.00,East,96,0.0,0.0,92,0.00,,,0.00,Wunderground v.1.15,2013-02-11 16:27:00,
2013-02-11 11:32:00,20.6,18.6,30.00,East,96,0.0,0.0,92,0.00,,,0.00,Wunderground v.1.15,2013-02-11 16:32:00,
2013-02-11 11:42:00,20.8,19.1,29.98,East,95,0.0,0.0,93,0.00,,,0.00,Wunderground v.1.15,2013-02-11 16:42:00,
2013-02-11 11:47:00,21.2,19.5,29.98,East,94,0.0,0.0,93,0.00,,,0.00,Wunderground v.1.15,2013-02-11 16:47:00,
2013-02-11 11:52:00,21.5,19.8,29.97,East,94,0.0,0.0,93,0.00,,,0.00,Wunderground v.1.15,2013-02-11 16:52:00,
2013-02-11 12:02:00,21.6,19.9,29.96,East,94,0.0,0.0,93,0.00,,,0.00,Wunderground v.1.15,2013-02-11 17:02:00,
2013-02-11 12:07:00,21.7,20.0,29.95,East,94,0.0,0.0,93,0.00,,,0.00,Wunderground v.1.15,2013-02-11 17:07:00,
2013-02-11 12:12:00,21.8,20.1,29.94,East,94,0.0,0.0,93,0.00,,,0.00,Wunderground v.1.15,2013-02-11 17:12:00,
2013-02-11 12:22:00,22.1,20.4,29.94,East,94,0.0,0.0,93,0.00,,,0.00,Wunderground v.1.15,2013-02-11 17:22:00,
2013-02-11 12:27:00,22.3,20.6,29.93,East,94,0.0,0.0,93,0.00,,,0.00,Wunderground v.1.15,2013-02-11 17:27:00,
2013-02-11 12:32:00,22.4,20.7,29.93,East,94,0.0,0.0,93,0.00,,,0.00,Wunderground v.1.15,2013-02-11 17:32:00,
2013-02-11 12:42:00,22.7,21.0,29.91,East,94,0.0,0.0,93,0.00,,,0.00,Wunderground v.1.15,2013-02-11 17:42:00,
2013-02-11 12:52:00,23.0,21.3,29.90,ENE,71,0.0,0.0,93,0.00,,,0.00,Wunderground v.1.15,2013-02-11 17:52:00,
2013-02-11 12:57:00,22.7,21.0,29.90,NE,38,0.0,0.0,93,0.00,,,0.00,Wunderground v.1.15,2013-02-11 17:57:00,
2013-02-11 13:02:00,22.6,20.9,29.89,NE,39,0.0,0.0,93,0.00,,,0.00,Wunderground v.1.15,2013-02-11 18:02:00,
2013-02-11 13:12:00,22.8,21.1,29.90,NE,38,0.0,0.0,93,0.00,,,0.00,Wunderground v.1.15,2013-02-11 18:12:00,
2013-02-11 13:22:00,23.1,21.4,29.88,NE,38,0.0,0.0,93,0.00,,,0.00,Wunderground v.1.15,2013-02-11 18:22:00,
2013-02-11 13:27:00,23.3,21.6,29.88,NE,38,0.0,0.0,93,0.00,,,0.00,Wunderground v.1.15,2013-02-11 18:27:00,
2013-02-11 13:32:00,23.3,21.6,29.87,NE,39,0.0,0.0,93,0.00,,,0.00,Wunderground v.1.15,2013-02-11 18:32:00,
2013-02-11 13:42:00,23.6,22.1,29.86,NE,38,0.0,0.0,94,0.00,,,0.00,Wunderground v.1.15,2013-02-11 18:42:00,
2013-02-11 13:52:00,23.6,22.1,29.85,NE,44,0.0,1.0,94,0.00,,,0.00,Wunderground v.1.15,2013-02-11 18:52:00,
2013-02-11 13:57:00,23.3,21.8,29.85,NE,44,0.0,0.0,94,0.00,,,0.00,Wunderground v.1.15,2013-02-11 18:57:00,
2013-02-11 14:02:00,23.2,21.7,29.85,NE,44,0.0,0.0,94,0.00,,,0.00,Wunderground v.1.15,2013-02-11 19:02:00,
2013-02-11 14:12:00,23.8,22.6,29.85,NE,44,0.0,0.0,95,0.00,,,0.00,Wunderground v.1.15,2013-02-11 19:12:00,
2013-02-11 14:22:00,24.3,23.1,29.84,NE,44,0.0,0.0,95,0.00,,,0.00,Wunderground v.1.15,2013-02-11 19:22:00,
2013-02-11 14:27:00,24.1,22.9,29.83,NE,44,0.0,0.0,95,0.00,,,0.00,Wunderground v.1.15,2013-02-11 19:27:00,
2013-02-11 14:32:00,23.9,22.7,29.84,NE,44,0.0,0.0,95,0.00,,,0.00,Wunderground v.1.15,2013-02-11 19:32:00,
2013-02-11 14:42:00,23.8,22.3,29.83,NE,44,0.0,0.0,94,0.00,,,0.00,Wunderground v.1.15,2013-02-11 19:42:00,
2013-02-11 14:47:00,23.9,22.7,29.83,NE,40,0.0,0.0,95,0.00,,,0.00,Wunderground v.1.15,2013-02-11 19:47:00,
2013-02-11 14:57:00,24.1,22.9,29.82,NE,38,0.0,2.0,95,0.00,,,0.00,Wunderground v.1.15,2013-02-11 19:57:00,
2013-02-11 15:02:00,24.2,23.0,29.82,NE,38,0.0,2.0,95,0.00,,,0.00,Wunderground v.1.15,2013-02-11 20:02:00,
2013-02-11 15:12:00,24.7,23.5,29.81,NE,38,0.0,0.0,95,0.00,,,0.00,Wunderground v.1.15,2013-02-11 20:12:00,
2013-02-11 15:17:00,24.8,23.6,29.81,NE,38,0.0,0.0,95,0.00,,,0.00,Wunderground v.1.15,2013-02-11 20:17:00,
2013-02-11 15:22:00,24.9,23.7,29.80,NE,38,0.0,0.0,95,0.00,,,0.00,Wunderground v.1.15,2013-02-11 20:22:00,
2013-02-11 15:32:00,25.2,24.0,29.77,NE,38,0.0,0.0,95,0.00,,,0.00,Wunderground v.1.15,2013-02-11 20:32:00,
2013-02-11 15:37:00,25.3,24.1,29.77,NE,38,0.0,0.0,95,0.00,,,0.00,Wunderground v.1.15,2013-02-11 20:37:00,
2013-02-11 15:42:00,25.5,24.3,29.77,NE,38,0.0,0.0,95,0.00,,,0.00,Wunderground v.1.15,2013-02-11 20:42:00,
2013-02-11 15:52:00,25.0,23.8,29.77,NE,38,0.0,0.0,95,0.00,,,0.00,Wunderground v.1.15,2013-02-11 20:52:00,
2013-02-11 16:02:00,25.1,23.9,29.76,NE,38,0.0,0.0,95,0.00,,,0.00,Wunderground v.1.15,2013-02-11 21:02:00,
2013-02-11 16:07:00,25.2,24.2,29.75,NE,38,0.0,2.0,96,0.00,,,0.00,Wunderground v.1.15,2013-02-11 21:07:00,
2013-02-11 16:12:00,25.4,24.4,29.75,NE,38,0.0,2.0,96,0.00,,,0.00,Wunderground v.1.15,2013-02-11 21:12:00,
2013-02-11 16:22:00,25.7,24.7,29.75,NE,38,0.0,0.0,96,0.00,,,0.00,Wunderground v.1.15,2013-02-11 21:22:00,
2013-02-11 16:32:00,25.8,24.8,29.75,NE,38,0.0,1.0,96,0.00,,,0.00,Wunderground v.1.15,2013-02-11 21:32:00,
2013-02-11 16:37:00,25.9,24.9,29.75,NE,38,0.0,0.0,96,0.00,,,0.00,Wunderground v.1.15,2013-02-11 21:37:00,
2013-02-11 16:42:00,25.8,24.8,29.75,NE,38,0.0,0.0,96,0.00,,,0.00,Wunderground v.1.15,2013-02-11 21:42:00,
2013-02-11 16:52:00,25.2,24.2,29.74,NE,38,0.0,0.0,96,0.00,,,0.00,Wunderground v.1.15,2013-02-11 21:52:00,
2013-02-11 16:57:00,25.3,24.3,29.74,NE,38,0.0,0.0,96,0.00,,,0.00,Wunderground v.1.15,2013-02-11 21:57:00,
2013-02-11 17:02:00,25.4,24.4,29.73,NE,38,0.0,0.0,96,0.00,,,0.00,Wunderground v.1.15,2013-02-11 22:02:00,
2013-02-11 17:12:00,25.7,24.7,29.73,NE,38,0.0,0.0,96,0.00,,,0.00,Wunderground v.1.15,2013-02-11 22:12:00,
2013-02-11 17:22:00,25.8,24.8,29.73,NE,38,0.0,0.0,96,0.00,,,0.00,Wunderground v.1.15,2013-02-11 22:22:00,
2013-02-11 17:27:00,25.9,24.9,29.73,NE,38,0.0,0.0,96,0.00,,,0.00,Wunderground v.1.15,2013-02-11 22:27:00,
2013-02-11 17:32:00,25.9,24.9,29.73,NE,38,0.0,0.0,96,0.00,,,0.00,Wunderground v.1.15,2013-02-11 22:32:00,
2013-02-11 17:42:00,26.0,25.0,29.73,NE,38,0.0,0.0,96,0.00,,,0.00,Wunderground v.1.15,2013-02-11 22:42:00,
2013-02-11 17:47:00,26.0,25.0,29.73,NE,38,0.0,0.0,96,0.00,,,0.00,Wunderground v.1.15,2013-02-11 22:47:00,
2013-02-11 17:52:00,26.1,25.1,29.72,NE,38,0.0,0.0,96,0.00,,,0.00,Wunderground v.1.15,2013-02-11 22:52:00,
2013-02-11 18:02:00,26.3,25.3,29.71,NE,38,0.0,0.0,96,0.00,,,0.00,Wunderground v.1.15,2013-02-11 23:02:00,
2013-02-11 18:12:00,26.4,25.4,29.71,NE,38,0.0,0.0,96,0.00,,,0.00,Wunderground v.1.15,2013-02-11 23:12:00,
2013-02-11 18:22:00,25.6,24.6,29.70,NE,38,0.0,0.0,96,0.00,,,0.00,Wunderground v.1.15,2013-02-11 23:22:00,
2013-02-11 18:32:00,25.1,24.1,29.69,NE,38,0.0,0.0,96,0.00,,,0.00,Wunderground v.1.15,2013-02-11 23:32:00,
2013-02-11 18:37:00,25.2,24.2,29.69,NE,38,0.0,0.0,96,0.00,,,0.00,Wunderground v.1.15,2013-02-11 23:37:00,
2013-02-11 18:42:00,25.3,24.3,29.69,NE,38,0.0,0.0,96,0.00,,,0.00,Wunderground v.1.15,2013-02-11 23:42:00,
2013-02-11 18:52:00,25.5,24.5,29.69,NE,38,0.0,0.0,96,0.00,,,0.00,Wunderground v.1.15,2013-02-11 23:52:00,
2013-02-11 18:57:00,25.6,24.6,29.69,NE,38,0.0,0.0,96,0.00,,,0.00,Wunderground v.1.15,2013-02-11 23:57:00,
2013-02-11 19:02:00,25.6,24.6,29.69,NE,38,0.0,0.0,96,0.00,,,0.00,Wunderground v.1.15,2013-02-12 00:02:00,
2013-02-11 19:12:00,26.0,25.0,29.69,NE,38,0.0,0.0,96,0.00,,,0.00,Wunderground v.1.15,2013-02-12 00:12:00,
2013-02-11 19:22:00,26.2,25.2,29.68,NE,38,0.0,0.0,96,0.00,,,0.00,Wunderground v.1.15,2013-02-12 00:22:00,
2013-02-11 19:27:00,26.6,25.9,29.68,NE,38,0.0,0.0,97,0.00,,,0.00,Wunderground v.1.15,2013-02-12 00:27:00,
2013-02-11 19:37:00,26.9,26.2,29.67,NE,38,0.0,0.0,97,0.00,,,0.00,Wunderground v.1.15,2013-02-12 00:37:00,
2013-02-11 19:42:00,26.7,25.7,29.67,NE,38,0.0,0.0,96,0.00,,,0.00,Wunderground v.1.15,2013-02-12 00:42:00,
2013-02-11 19:47:00,26.5,25.8,29.66,NE,38,0.0,0.0,97,0.00,,,0.00,Wunderground v.1.15,2013-02-12 00:47:00,
2013-02-11 19:52:00,26.4,25.7,29.66,NE,38,0.0,0.0,97,0.00,,,0.00,Wunderground v.1.15,2013-02-12 00:52:00,
2013-02-11 20:02:00,26.5,25.8,29.66,NE,38,0.0,0.0,97,0.00,,,0.00,Wunderground v.1.15,2013-02-12 01:02:00,
2013-02-11 20:07:00,26.7,26.0,29.66,NE,38,0.0,0.0,97,0.00,,,0.00,Wunderground v.1.15,2013-02-12 01:07:00,
2013-02-11 20:17:00,27.2,26.5,29.65,NE,38,0.0,0.0,97,0.00,,,0.00,Wunderground v.1.15,2013-02-12 01:17:00,
2013-02-11 20:22:00,27.3,26.6,29.65,NE,38,0.0,0.0,97,0.00,,,0.00,Wunderground v.1.15,2013-02-12 01:22:00,
2013-02-11 20:27:00,27.6,26.9,29.64,NE,38,0.0,0.0,97,0.00,,,0.00,Wunderground v.1.15,2013-02-12 01:27:00,
2013-02-11 20:32:00,27.4,26.7,29.66,NE,38,0.0,0.0,97,0.00,,,0.00,Wunderground v.1.15,2013-02-12 01:32:00,
2013-02-11 20:42:00,26.2,25.2,29.67,NE,38,0.0,0.0,96,0.00,,,0.00,Wunderground v.1.15,2013-02-12 01:42:00,
2013-02-11 20:52:00,26.6,25.9,29.66,NE,38,0.0,0.0,97,0.00,,,0.00,Wunderground v.1.15,2013-02-12 01:52:00,
2013-02-11 20:57:00,27.0,26.3,29.66,NE,38,0.0,0.0,97,0.00,,,0.00,Wunderground v.1.15,2013-02-12 01:57:00,
2013-02-11 21:02:00,27.1,26.4,29.66,NE,38,0.0,0.0,97,0.00,,,0.00,Wunderground v.1.15,2013-02-12 02:02:00,
2013-02-11 21:12:00,27.0,26.3,29.64,NE,38,0.0,0.0,97,0.00,,,0.00,Wunderground v.1.15,2013-02-12 02:12:00,
2013-02-11 21:22:00,26.9,26.2,29.64,NE,38,0.0,0.0,97,0.00,,,0.00,Wunderground v.1.15,2013-02-12 02:22:00,
2013-02-11 21:27:00,27.0,26.3,29.64,NE,38,0.0,0.0,97,0.00,,,0.00,Wunderground v.1.15,2013-02-12 02:27:00,
2013-02-11 21:37:00,27.1,26.4,29.63,NE,38,0.0,0.0,97,0.00,,,0.00,Wunderground v.1.15,2013-02-12 02:37:00,
2013-02-11 21:42:00,27.3,26.6,29.65,NE,38,0.0,0.0,97,0.00,,,0.00,Wunderground v.1.15,2013-02-12 02:42:00,
2013-02-11 21:52:00,27.2,26.5,29.65,NE,38,0.0,0.0,97,0.00,,,0.00,Wunderground v.1.15,2013-02-12 02:52:00,
2013-02-11 21:57:00,27.5,26.8,29.64,NE,38,0.0,0.0,97,0.00,,,0.00,Wunderground v.1.15,2013-02-12 02:57:00,
2013-02-11 22:02:00,27.6,26.9,29.63,NE,38,0.0,0.0,97,0.00,,,0.00,Wunderground v.1.15,2013-02-12 03:02:00,
2013-02-11 22:12:00,27.9,27.2,29.64,NE,38,0.0,0.0,97,0.00,,,0.00,Wunderground v.1.15,2013-02-12 03:12:00,
2013-02-11 22:17:00,27.8,27.1,29.63,NE,38,0.0,0.0,97,0.00,,,0.00,Wunderground v.1.15,2013-02-12 03:17:00,
2013-02-11 22:22:00,27.8,27.1,29.63,NE,38,0.0,0.0,97,0.00,,,0.00,Wunderground v.1.15,2013-02-12 03:22:00,
2013-02-11 22:32:00,27.9,27.2,29.63,NE,38,0.0,0.0,97,0.00,,,0.00,Wunderground v.1.15,2013-02-12 03:32:00,
2013-02-11 22:42:00,28.0,27.3,29.62,NE,38,0.0,0.0,97,0.00,,,0.00,Wunderground v.1.15,2013-02-12 03:42:00,
2013-02-11 22:47:00,28.0,27.3,29.62,NE,38,0.0,0.0,97,0.00,,,0.00,Wunderground v.1.15,2013-02-12 03:47:00,
2013-02-11 22:57:00,28.0,27.3,29.64,NE,38,0.0,0.0,97,0.00,,,0.00,Wunderground v.1.15,2013-02-12 03:57:00,
2013-02-11 23:02:00,27.7,27.0,29.64,NE,38,0.0,0.0,97,0.00,,,0.00,Wunderground v.1.15,2013-02-12 04:02:00,
2013-02-11 23:07:00,27.6,26.9,29.63,NE,38,0.0,0.0,97,0.00,,,0.00,Wunderground v.1.15,2013-02-12 04:07:00,
2013-02-11 23:12:00,27.5,26.8,29.63,NE,38,0.0,0.0,97,0.00,,,0.00,Wunderground v.1.15,2013-02-12 04:12:00,
2013-02-11 23:22:00,27.7,27.0,29.63,NE,38,0.0,0.0,97,0.00,,,0.00,Wunderground v.1.15,2013-02-12 04:22:00,
2013-02-11 23:27:00,28.1,27.4,29.62,NE,38,0.0,0.0,97,0.00,,,0.00,Wunderground v.1.15,2013-02-12 04:27:00,
2013-02-11 23:37:00,29.4,28.7,29.62,NE,38,0.0,0.0,97,0.00,,,0.00,Wunderground v.1.15,2013-02-12 04:37:00,
2013-02-11 23:42:00,29.5,29.0,29.62,NE,38,0.0,0.0,98,0.00,,,0.00,Wunderground v.1.15,2013-02-12 04:42:00,
2013-02-11 23:47:00,29.2,28.5,29.62,NE,38,0.0,0.0,97,0.00,,,0.00,Wunderground v.1.15,2013-02-12 04:47:00,
2013-02-11 23:52:00,28.7,28.0,29.61,NE,38,0.0,0.0,97,0.00,,,0.00,Wunderground v.1.15,2013-02-12 04:52:00,